sensor_id;sensor_type;location;lat;lon;timestamp;P1;durP1;ratioP1;P2;durP2;ratioP2
15876;SDS011;8037;51.666;7.834;2022-12-07T00:01:40;8.70;;;6.60;;
15876;SDS011;8037;51.666;7.834;2022-12-07T00:04:08;11.03;;;6.10;;
15876;SDS011;8037;51.666;7.834;2022-12-07T00:06:37;9.80;;;7.00;;
15876;SDS011;8037;51.666;7.834;2022-12-07T00:09:04;8.67;;;6.93;;
15876;SDS011;8037;51.666;7.834;2022-12-07T00:11:31;10.50;;;7.17;;
15876;SDS011;8037;51.666;7.834;2022-12-07T00:13:58;6.47;;;5.80;;
15876;SDS011;8037;51.666;7.834;2022-12-07T00:16:26;6.20;;;5.60;;
15876;SDS011;8037;51.666;7.834;2022-12-07T00:18:53;7.30;;;6.50;;
15876;SDS011;8037;51.666;7.834;2022-12-07T00:21:20;7.90;;;5.93;;
15876;SDS011;8037;51.666;7.834;2022-12-07T00:23:48;5.83;;;5.40;;
15876;SDS011;8037;51.666;7.834;2022-12-07T00:28:44;7.07;;;6.10;;
15876;SDS011;8037;51.666;7.834;2022-12-07T00:31:11;8.77;;;6.03;;
15876;SDS011;8037;51.666;7.834;2022-12-07T00:33:38;10.27;;;6.30;;
15876;SDS011;8037;51.666;7.834;2022-12-07T00:36:08;5.97;;;5.30;;
15876;SDS011;8037;51.666;7.834;2022-12-07T00:38:36;9.93;;;6.43;;
15876;SDS011;8037;51.666;7.834;2022-12-07T00:41:06;7.80;;;5.43;;
15876;SDS011;8037;51.666;7.834;2022-12-07T00:43:44;5.87;;;5.23;;
15876;SDS011;8037;51.666;7.834;2022-12-07T00:46:10;5.00;;;4.60;;
15876;SDS011;8037;51.666;7.834;2022-12-07T00:48:37;6.63;;;4.80;;
15876;SDS011;8037;51.666;7.834;2022-12-07T00:51:03;6.70;;;5.67;;
15876;SDS011;8037;51.666;7.834;2022-12-07T00:53:29;7.03;;;5.27;;
15876;SDS011;8037;51.666;7.834;2022-12-07T00:55:55;5.20;;;4.80;;
15876;SDS011;8037;51.666;7.834;2022-12-07T00:58:21;7.20;;;4.87;;
15876;SDS011;8037;51.666;7.834;2022-12-07T01:00:47;6.70;;;4.67;;
15876;SDS011;8037;51.666;7.834;2022-12-07T01:03:14;6.73;;;5.00;;
15876;SDS011;8037;51.666;7.834;2022-12-07T01:05:48;7.33;;;5.90;;
15876;SDS011;8037;51.666;7.834;2022-12-07T01:08:15;6.93;;;4.50;;
15876;SDS011;8037;51.666;7.834;2022-12-07T01:10:41;4.30;;;3.90;;
15876;SDS011;8037;51.666;7.834;2022-12-07T01:13:06;4.80;;;4.30;;
15876;SDS011;8037;51.666;7.834;2022-12-07T01:15:32;4.90;;;4.40;;
15876;SDS011;8037;51.666;7.834;2022-12-07T01:17:58;4.07;;;3.67;;
15876;SDS011;8037;51.666;7.834;2022-12-07T01:20:24;5.20;;;4.73;;
15876;SDS011;8037;51.666;7.834;2022-12-07T01:22:50;5.97;;;5.37;;
15876;SDS011;8037;51.666;7.834;2022-12-07T01:25:16;5.00;;;4.60;;
15876;SDS011;8037;51.666;7.834;2022-12-07T01:27:41;6.87;;;6.00;;
15876;SDS011;8037;51.666;7.834;2022-12-07T01:30:08;4.67;;;4.27;;
15876;SDS011;8037;51.666;7.834;2022-12-07T01:32:34;4.33;;;4.00;;
15876;SDS011;8037;51.666;7.834;2022-12-07T01:35:00;4.70;;;4.30;;
15876;SDS011;8037;51.666;7.834;2022-12-07T01:37:25;5.80;;;4.67;;
15876;SDS011;8037;51.666;7.834;2022-12-07T01:39:51;5.60;;;5.13;;
15876;SDS011;8037;51.666;7.834;2022-12-07T01:42:18;5.47;;;4.97;;
15876;SDS011;8037;51.666;7.834;2022-12-07T01:47:41;6.47;;;4.50;;
15876;SDS011;8037;51.666;7.834;2022-12-07T01:50:08;4.60;;;4.30;;
15876;SDS011;8037;51.666;7.834;2022-12-07T01:52:34;4.97;;;4.47;;
15876;SDS011;8037;51.666;7.834;2022-12-07T01:55:03;5.43;;;4.93;;
15876;SDS011;8037;51.666;7.834;2022-12-07T01:57:32;6.33;;;5.80;;
15876;SDS011;8037;51.666;7.834;2022-12-07T02:00:01;7.10;;;4.70;;
15876;SDS011;8037;51.666;7.834;2022-12-07T02:02:31;5.10;;;4.60;;
15876;SDS011;8037;51.666;7.834;2022-12-07T02:04:59;7.00;;;5.40;;
15876;SDS011;8037;51.666;7.834;2022-12-07T02:07:26;5.93;;;4.47;;
15876;SDS011;8037;51.666;7.834;2022-12-07T02:09:53;8.23;;;4.93;;
15876;SDS011;8037;51.666;7.834;2022-12-07T02:12:20;5.37;;;4.87;;
15876;SDS011;8037;51.666;7.834;2022-12-07T02:14:46;5.60;;;5.10;;
15876;SDS011;8037;51.666;7.834;2022-12-07T02:17:56;7.77;;;4.20;;
15876;SDS011;8037;51.666;7.834;2022-12-07T02:25:55;4.90;;;4.50;;
15876;SDS011;8037;51.666;7.834;2022-12-07T02:30:58;5.77;;;4.23;;
15876;SDS011;8037;51.666;7.834;2022-12-07T02:33:40;6.30;;;4.80;;
15876;SDS011;8037;51.666;7.834;2022-12-07T02:36:17;8.93;;;4.43;;
15876;SDS011;8037;51.666;7.834;2022-12-07T02:39:00;4.37;;;4.03;;
15876;SDS011;8037;51.666;7.834;2022-12-07T02:41:33;6.07;;;4.87;;
15876;SDS011;8037;51.666;7.834;2022-12-07T02:44:06;7.47;;;5.40;;
15876;SDS011;8037;51.666;7.834;2022-12-07T02:46:38;6.63;;;5.80;;
15876;SDS011;8037;51.666;7.834;2022-12-07T02:49:10;6.40;;;5.10;;
15876;SDS011;8037;51.666;7.834;2022-12-07T02:51:39;5.80;;;5.10;;
15876;SDS011;8037;51.666;7.834;2022-12-07T02:54:18;7.30;;;4.60;;
15876;SDS011;8037;51.666;7.834;2022-12-07T03:07:22;7.10;;;5.50;;
15876;SDS011;8037;51.666;7.834;2022-12-07T03:10:03;5.50;;;5.00;;
15876;SDS011;8037;51.666;7.834;2022-12-07T03:12:37;8.13;;;5.33;;
15876;SDS011;8037;51.666;7.834;2022-12-07T03:15:26;4.90;;;4.30;;
15876;SDS011;8037;51.666;7.834;2022-12-07T03:17:58;5.10;;;4.60;;
15876;SDS011;8037;51.666;7.834;2022-12-07T03:20:25;6.10;;;4.87;;
15876;SDS011;8037;51.666;7.834;2022-12-07T03:22:52;4.40;;;4.00;;
15876;SDS011;8037;51.666;7.834;2022-12-07T03:25:19;8.50;;;3.87;;
15876;SDS011;8037;51.666;7.834;2022-12-07T03:27:48;5.17;;;4.77;;
15876;SDS011;8037;51.666;7.834;2022-12-07T03:30:22;10.00;;;4.40;;
15876;SDS011;8037;51.666;7.834;2022-12-07T03:35:19;6.73;;;4.93;;
15876;SDS011;8037;51.666;7.834;2022-12-07T03:37:56;7.30;;;5.37;;
15876;SDS011;8037;51.666;7.834;2022-12-07T03:42:51;5.37;;;4.97;;
15876;SDS011;8037;51.666;7.834;2022-12-07T03:45:17;7.70;;;5.50;;
15876;SDS011;8037;51.666;7.834;2022-12-07T03:47:50;8.23;;;5.57;;
15876;SDS011;8037;51.666;7.834;2022-12-07T03:50:25;4.77;;;3.93;;
15876;SDS011;8037;51.666;7.834;2022-12-07T03:53:04;5.27;;;4.40;;
15876;SDS011;8037;51.666;7.834;2022-12-07T03:55:37;5.53;;;5.03;;
15876;SDS011;8037;51.666;7.834;2022-12-07T03:58:10;5.73;;;4.60;;
15876;SDS011;8037;51.666;7.834;2022-12-07T04:00:40;8.60;;;5.20;;
15876;SDS011;8037;51.666;7.834;2022-12-07T04:03:06;7.37;;;5.10;;
15876;SDS011;8037;51.666;7.834;2022-12-07T04:05:32;8.50;;;4.60;;
15876;SDS011;8037;51.666;7.834;2022-12-07T04:07:58;4.60;;;4.20;;
15876;SDS011;8037;51.666;7.834;2022-12-07T04:10:24;5.93;;;5.37;;
15876;SDS011;8037;51.666;7.834;2022-12-07T04:12:49;12.67;;;5.10;;
15876;SDS011;8037;51.666;7.834;2022-12-07T04:15:15;5.90;;;5.40;;
15876;SDS011;8037;51.666;7.834;2022-12-07T04:17:41;9.13;;;5.80;;
15876;SDS011;8037;51.666;7.834;2022-12-07T04:20:07;9.13;;;5.13;;
15876;SDS011;8037;51.666;7.834;2022-12-07T04:22:33;6.30;;;5.57;;
15876;SDS011;8037;51.666;7.834;2022-12-07T04:24:59;6.20;;;5.60;;
15876;SDS011;8037;51.666;7.834;2022-12-07T04:27:25;5.77;;;4.47;;
15876;SDS011;8037;51.666;7.834;2022-12-07T04:29:51;3.40;;;3.20;;
15876;SDS011;8037;51.666;7.834;2022-12-07T04:32:17;6.20;;;5.47;;
15876;SDS011;8037;51.666;7.834;2022-12-07T04:34:43;4.90;;;4.23;;
15876;SDS011;8037;51.666;7.834;2022-12-07T04:37:09;6.70;;;5.40;;
15876;SDS011;8037;51.666;7.834;2022-12-07T04:39:34;5.27;;;4.77;;
15876;SDS011;8037;51.666;7.834;2022-12-07T04:42:00;10.63;;;5.60;;
15876;SDS011;8037;51.666;7.834;2022-12-07T04:44:27;5.07;;;4.60;;
15876;SDS011;8037;51.666;7.834;2022-12-07T04:46:53;6.07;;;5.47;;
15876;SDS011;8037;51.666;7.834;2022-12-07T04:49:20;6.07;;;5.47;;
15876;SDS011;8037;51.666;7.834;2022-12-07T04:51:46;12.20;;;6.03;;
15876;SDS011;8037;51.666;7.834;2022-12-07T04:54:13;6.30;;;5.70;;
15876;SDS011;8037;51.666;7.834;2022-12-07T04:56:39;11.20;;;5.33;;
15876;SDS011;8037;51.666;7.834;2022-12-07T04:59:05;9.80;;;5.80;;
15876;SDS011;8037;51.666;7.834;2022-12-07T05:01:31;6.33;;;5.03;;
15876;SDS011;8037;51.666;7.834;2022-12-07T05:03:57;6.87;;;5.20;;
15876;SDS011;8037;51.666;7.834;2022-12-07T05:06:23;7.50;;;4.60;;
15876;SDS011;8037;51.666;7.834;2022-12-07T05:08:49;6.67;;;4.77;;
15876;SDS011;8037;51.666;7.834;2022-12-07T05:11:15;6.40;;;5.10;;
15876;SDS011;8037;51.666;7.834;2022-12-07T05:14:01;7.73;;;3.87;;
15876;SDS011;8037;51.666;7.834;2022-12-07T05:16:27;5.97;;;5.37;;
15876;SDS011;8037;51.666;7.834;2022-12-07T05:18:53;5.80;;;5.30;;
15876;SDS011;8037;51.666;7.834;2022-12-07T05:21:19;9.10;;;4.57;;
15876;SDS011;8037;51.666;7.834;2022-12-07T05:23:45;4.67;;;4.27;;
15876;SDS011;8037;51.666;7.834;2022-12-07T05:26:11;7.67;;;5.93;;
15876;SDS011;8037;51.666;7.834;2022-12-07T05:28:37;8.47;;;5.87;;
15876;SDS011;8037;51.666;7.834;2022-12-07T05:31:03;6.73;;;5.63;;
15876;SDS011;8037;51.666;7.834;2022-12-07T05:33:29;6.93;;;5.50;;
15876;SDS011;8037;51.666;7.834;2022-12-07T05:35:55;4.83;;;4.40;;
15876;SDS011;8037;51.666;7.834;2022-12-07T05:38:21;5.20;;;4.67;;
15876;SDS011;8037;51.666;7.834;2022-12-07T05:40:47;7.10;;;5.53;;
15876;SDS011;8037;51.666;7.834;2022-12-07T05:43:13;8.47;;;5.73;;
15876;SDS011;8037;51.666;7.834;2022-12-07T05:45:39;5.27;;;4.53;;
15876;SDS011;8037;51.666;7.834;2022-12-07T05:48:05;9.80;;;5.30;;
15876;SDS011;8037;51.666;7.834;2022-12-07T05:50:31;5.30;;;4.73;;
15876;SDS011;8037;51.666;7.834;2022-12-07T05:52:57;4.43;;;4.10;;
15876;SDS011;8037;51.666;7.834;2022-12-07T05:55:23;6.33;;;4.63;;
15876;SDS011;8037;51.666;7.834;2022-12-07T05:57:49;5.40;;;4.90;;
15876;SDS011;8037;51.666;7.834;2022-12-07T06:00:33;7.23;;;4.13;;
15876;SDS011;8037;51.666;7.834;2022-12-07T06:02:59;5.40;;;4.90;;
15876;SDS011;8037;51.666;7.834;2022-12-07T06:05:25;5.57;;;4.60;;
15876;SDS011;8037;51.666;7.834;2022-12-07T06:07:51;5.90;;;4.63;;
15876;SDS011;8037;51.666;7.834;2022-12-07T06:10:17;4.33;;;3.90;;
15876;SDS011;8037;51.666;7.834;2022-12-07T06:12:43;4.27;;;3.87;;
15876;SDS011;8037;51.666;7.834;2022-12-07T06:15:11;6.60;;;4.60;;
15876;SDS011;8037;51.666;7.834;2022-12-07T06:17:38;6.10;;;4.30;;
15876;SDS011;8037;51.666;7.834;2022-12-07T06:20:04;5.77;;;4.00;;
15876;SDS011;8037;51.666;7.834;2022-12-07T06:22:30;7.63;;;3.90;;
15876;SDS011;8037;51.666;7.834;2022-12-07T06:24:56;6.33;;;4.03;;
15876;SDS011;8037;51.666;7.834;2022-12-07T06:27:22;3.63;;;3.33;;
15876;SDS011;8037;51.666;7.834;2022-12-07T06:29:48;4.20;;;3.50;;
15876;SDS011;8037;51.666;7.834;2022-12-07T06:32:14;4.73;;;4.30;;
15876;SDS011;8037;51.666;7.834;2022-12-07T06:34:40;5.57;;;4.63;;
15876;SDS011;8037;51.666;7.834;2022-12-07T06:37:05;5.70;;;3.30;;
15876;SDS011;8037;51.666;7.834;2022-12-07T06:39:31;5.17;;;3.83;;
15876;SDS011;8037;51.666;7.834;2022-12-07T06:41:57;6.30;;;3.60;;
15876;SDS011;8037;51.666;7.834;2022-12-07T06:44:24;6.90;;;4.90;;
15876;SDS011;8037;51.666;7.834;2022-12-07T06:46:50;8.17;;;3.57;;
15876;SDS011;8037;51.666;7.834;2022-12-07T06:49:16;5.30;;;3.97;;
15876;SDS011;8037;51.666;7.834;2022-12-07T06:51:42;10.33;;;3.63;;
15876;SDS011;8037;51.666;7.834;2022-12-07T06:54:09;6.70;;;4.73;;
15876;SDS011;8037;51.666;7.834;2022-12-07T06:56:34;5.37;;;4.80;;
15876;SDS011;8037;51.666;7.834;2022-12-07T06:59:01;10.67;;;4.90;;
15876;SDS011;8037;51.666;7.834;2022-12-07T07:01:27;6.50;;;4.63;;
15876;SDS011;8037;51.666;7.834;2022-12-07T07:03:53;6.97;;;4.90;;
15876;SDS011;8037;51.666;7.834;2022-12-07T07:06:19;4.20;;;3.87;;
15876;SDS011;8037;51.666;7.834;2022-12-07T07:08:45;5.10;;;4.27;;
15876;SDS011;8037;51.666;7.834;2022-12-07T07:11:11;4.90;;;3.33;;
15876;SDS011;8037;51.666;7.834;2022-12-07T07:13:37;8.10;;;4.40;;
15876;SDS011;8037;51.666;7.834;2022-12-07T07:16:03;7.03;;;4.23;;
15876;SDS011;8037;51.666;7.834;2022-12-07T07:18:29;6.90;;;4.20;;
15876;SDS011;8037;51.666;7.834;2022-12-07T07:20:55;7.47;;;4.47;;
15876;SDS011;8037;51.666;7.834;2022-12-07T07:23:20;4.47;;;4.07;;
15876;SDS011;8037;51.666;7.834;2022-12-07T07:25:46;4.20;;;3.90;;
15876;SDS011;8037;51.666;7.834;2022-12-07T07:28:13;6.03;;;3.20;;
15876;SDS011;8037;51.666;7.834;2022-12-07T07:30:39;6.97;;;4.67;;
15876;SDS011;8037;51.666;7.834;2022-12-07T07:33:05;4.80;;;3.93;;
15876;SDS011;8037;51.666;7.834;2022-12-07T07:35:31;7.40;;;5.73;;
15876;SDS011;8037;51.666;7.834;2022-12-07T07:37:59;7.10;;;5.10;;
15876;SDS011;8037;51.666;7.834;2022-12-07T07:40:25;5.23;;;4.60;;
15876;SDS011;8037;51.666;7.834;2022-12-07T07:42:51;5.90;;;4.80;;
15876;SDS011;8037;51.666;7.834;2022-12-07T07:45:21;7.93;;;4.87;;
15876;SDS011;8037;51.666;7.834;2022-12-07T07:47:48;7.53;;;3.87;;
15876;SDS011;8037;51.666;7.834;2022-12-07T07:50:14;6.10;;;3.87;;
15876;SDS011;8037;51.666;7.834;2022-12-07T07:52:41;6.07;;;4.20;;
15876;SDS011;8037;51.666;7.834;2022-12-07T07:55:07;6.63;;;4.43;;
15876;SDS011;8037;51.666;7.834;2022-12-07T07:57:36;8.83;;;4.80;;
15876;SDS011;8037;51.666;7.834;2022-12-07T08:00:03;5.33;;;4.80;;
15876;SDS011;8037;51.666;7.834;2022-12-07T08:02:31;8.40;;;4.10;;
15876;SDS011;8037;51.666;7.834;2022-12-07T08:04:57;6.10;;;3.80;;
15876;SDS011;8037;51.666;7.834;2022-12-07T08:07:23;11.00;;;4.60;;
15876;SDS011;8037;51.666;7.834;2022-12-07T08:09:49;8.73;;;4.80;;
15876;SDS011;8037;51.666;7.834;2022-12-07T08:12:15;5.53;;;5.03;;
15876;SDS011;8037;51.666;7.834;2022-12-07T08:14:41;4.63;;;4.20;;
15876;SDS011;8037;51.666;7.834;2022-12-07T08:17:07;5.47;;;3.43;;
15876;SDS011;8037;51.666;7.834;2022-12-07T08:19:33;8.30;;;6.37;;
15876;SDS011;8037;51.666;7.834;2022-12-07T08:21:59;8.17;;;5.40;;
15876;SDS011;8037;51.666;7.834;2022-12-07T08:24:25;4.33;;;3.87;;
15876;SDS011;8037;51.666;7.834;2022-12-07T08:26:51;7.33;;;4.10;;
15876;SDS011;8037;51.666;7.834;2022-12-07T08:29:17;8.23;;;3.43;;
15876;SDS011;8037;51.666;7.834;2022-12-07T08:31:43;5.90;;;3.90;;
15876;SDS011;8037;51.666;7.834;2022-12-07T08:34:12;4.40;;;4.00;;
15876;SDS011;8037;51.666;7.834;2022-12-07T08:36:38;7.27;;;4.53;;
15876;SDS011;8037;51.666;7.834;2022-12-07T08:39:04;3.87;;;3.57;;
15876;SDS011;8037;51.666;7.834;2022-12-07T08:41:30;4.40;;;3.80;;
15876;SDS011;8037;51.666;7.834;2022-12-07T08:43:56;6.20;;;4.03;;
15876;SDS011;8037;51.666;7.834;2022-12-07T08:46:26;4.53;;;4.17;;
15876;SDS011;8037;51.666;7.834;2022-12-07T08:49:17;7.00;;;4.70;;
15876;SDS011;8037;51.666;7.834;2022-12-07T08:51:56;3.83;;;3.53;;
15876;SDS011;8037;51.666;7.834;2022-12-07T08:54:22;4.20;;;3.43;;
15876;SDS011;8037;51.666;7.834;2022-12-07T08:56:48;3.47;;;3.27;;
15876;SDS011;8037;51.666;7.834;2022-12-07T08:59:16;5.10;;;3.83;;
15876;SDS011;8037;51.666;7.834;2022-12-07T09:01:44;20.83;;;12.20;;
15876;SDS011;8037;51.666;7.834;2022-12-07T09:04:10;24.80;;;12.33;;
15876;SDS011;8037;51.666;7.834;2022-12-07T09:06:36;36.57;;;18.53;;
15876;SDS011;8037;51.666;7.834;2022-12-07T09:09:02;36.00;;;21.70;;
15876;SDS011;8037;51.666;7.834;2022-12-07T09:11:28;21.83;;;13.60;;
15876;SDS011;8037;51.666;7.834;2022-12-07T09:13:54;11.77;;;7.97;;
15876;SDS011;8037;51.666;7.834;2022-12-07T09:16:20;10.83;;;4.97;;
15876;SDS011;8037;51.666;7.834;2022-12-07T09:18:46;4.50;;;4.20;;
15876;SDS011;8037;51.666;7.834;2022-12-07T09:21:12;3.73;;;3.50;;
15876;SDS011;8037;51.666;7.834;2022-12-07T09:23:38;3.67;;;3.33;;
15876;SDS011;8037;51.666;7.834;2022-12-07T09:26:04;3.90;;;3.50;;
15876;SDS011;8037;51.666;7.834;2022-12-07T09:28:30;4.70;;;4.10;;
15876;SDS011;8037;51.666;7.834;2022-12-07T09:30:57;10.60;;;3.83;;
15876;SDS011;8037;51.666;7.834;2022-12-07T09:33:23;5.90;;;3.70;;
15876;SDS011;8037;51.666;7.834;2022-12-07T09:35:49;7.40;;;4.20;;
15876;SDS011;8037;51.666;7.834;2022-12-07T09:38:15;6.90;;;3.83;;
15876;SDS011;8037;51.666;7.834;2022-12-07T09:40:41;5.50;;;3.40;;
15876;SDS011;8037;51.666;7.834;2022-12-07T09:43:15;6.60;;;3.63;;
15876;SDS011;8037;51.666;7.834;2022-12-07T09:45:44;4.90;;;4.00;;
15876;SDS011;8037;51.666;7.834;2022-12-07T09:48:14;8.97;;;4.37;;
15876;SDS011;8037;51.666;7.834;2022-12-07T09:50:52;5.13;;;3.60;;
15876;SDS011;8037;51.666;7.834;2022-12-07T09:53:25;2.93;;;2.60;;
15876;SDS011;8037;51.666;7.834;2022-12-07T09:55:53;16.63;;;4.17;;
15876;SDS011;8037;51.666;7.834;2022-12-07T09:58:26;3.73;;;3.23;;
15876;SDS011;8037;51.666;7.834;2022-12-07T10:00:55;6.60;;;4.00;;
15876;SDS011;8037;51.666;7.834;2022-12-07T10:03:23;4.07;;;3.33;;
15876;SDS011;8037;51.666;7.834;2022-12-07T10:05:50;3.30;;;3.00;;
15876;SDS011;8037;51.666;7.834;2022-12-07T10:08:17;12.40;;;4.50;;
15876;SDS011;8037;51.666;7.834;2022-12-07T10:10:43;4.73;;;4.20;;
15876;SDS011;8037;51.666;7.834;2022-12-07T10:13:11;3.37;;;3.07;;
15876;SDS011;8037;51.666;7.834;2022-12-07T10:18:38;5.00;;;3.03;;
15876;SDS011;8037;51.666;7.834;2022-12-07T10:21:19;8.93;;;4.23;;
15876;SDS011;8037;51.666;7.834;2022-12-07T10:24:05;4.07;;;3.57;;
15876;SDS011;8037;51.666;7.834;2022-12-07T10:31:41;4.13;;;3.73;;
15876;SDS011;8037;51.666;7.834;2022-12-07T10:34:20;9.53;;;4.37;;
15876;SDS011;8037;51.666;7.834;2022-12-07T10:36:47;5.23;;;3.57;;
15876;SDS011;8037;51.666;7.834;2022-12-07T10:39:13;4.90;;;2.93;;
15876;SDS011;8037;51.666;7.834;2022-12-07T10:41:55;6.63;;;2.70;;
15876;SDS011;8037;51.666;7.834;2022-12-07T10:44:23;3.37;;;3.17;;
15876;SDS011;8037;51.666;7.834;2022-12-07T10:52:38;5.80;;;3.00;;
15876;SDS011;8037;51.666;7.834;2022-12-07T10:55:35;9.77;;;3.30;;
15876;SDS011;8037;51.666;7.834;2022-12-07T11:01:22;13.50;;;3.63;;
15876;SDS011;8037;51.666;7.834;2022-12-07T11:04:14;2.93;;;2.67;;
15876;SDS011;8037;51.666;7.834;2022-12-07T11:10:01;4.37;;;2.53;;
15876;SDS011;8037;51.666;7.834;2022-12-07T11:12:54;6.97;;;2.97;;
15876;SDS011;8037;51.666;7.834;2022-12-07T11:15:41;2.83;;;2.03;;
15876;SDS011;8037;51.666;7.834;2022-12-07T11:21:03;3.47;;;2.70;;
15876;SDS011;8037;51.666;7.834;2022-12-07T11:23:49;2.80;;;2.60;;
15876;SDS011;8037;51.666;7.834;2022-12-07T11:26:39;3.40;;;2.23;;
15876;SDS011;8037;51.666;7.834;2022-12-07T11:37:16;3.90;;;2.23;;
15876;SDS011;8037;51.666;7.834;2022-12-07T11:39:52;2.40;;;2.20;;
15876;SDS011;8037;51.666;7.834;2022-12-07T11:42:26;1.17;;;1.17;;
15876;SDS011;8037;51.666;7.834;2022-12-07T11:44:56;3.77;;;2.20;;
15876;SDS011;8037;51.666;7.834;2022-12-07T11:47:38;5.33;;;2.40;;
15876;SDS011;8037;51.666;7.834;2022-12-07T11:52:58;4.30;;;1.40;;
15876;SDS011;8037;51.666;7.834;2022-12-07T11:55:47;2.80;;;1.93;;
15876;SDS011;8037;51.666;7.834;2022-12-07T11:58:23;1.77;;;1.33;;
15876;SDS011;8037;51.666;7.834;2022-12-07T12:03:43;3.83;;;1.43;;
15876;SDS011;8037;51.666;7.834;2022-12-07T12:06:11;2.33;;;1.40;;
15876;SDS011;8037;51.666;7.834;2022-12-07T12:08:39;2.10;;;1.40;;
15876;SDS011;8037;51.666;7.834;2022-12-07T12:19:58;5.80;;;1.33;;
15876;SDS011;8037;51.666;7.834;2022-12-07T12:22:41;3.43;;;1.57;;
15876;SDS011;8037;51.666;7.834;2022-12-07T12:25:43;3.73;;;1.33;;
15876;SDS011;8037;51.666;7.834;2022-12-07T12:28:03;17.73;;;1.30;;
15876;SDS011;8037;51.666;7.834;2022-12-07T12:33:01;1.37;;;1.23;;
15876;SDS011;8037;51.666;7.834;2022-12-07T12:37:56;6.63;;;2.03;;
15876;SDS011;8037;51.666;7.834;2022-12-07T12:40:52;3.57;;;1.60;;
15876;SDS011;8037;51.666;7.834;2022-12-07T12:54:14;2.00;;;1.00;;
15876;SDS011;8037;51.666;7.834;2022-12-07T12:56:45;1.93;;;1.83;;
15876;SDS011;8037;51.666;7.834;2022-12-07T13:01:56;3.23;;;1.37;;
15876;SDS011;8037;51.666;7.834;2022-12-07T13:04:47;1.97;;;1.50;;
15876;SDS011;8037;51.666;7.834;2022-12-07T13:12:58;1.97;;;1.33;;
15876;SDS011;8037;51.666;7.834;2022-12-07T13:16:38;6.57;;;1.67;;
15876;SDS011;8037;51.666;7.834;2022-12-07T13:18:35;3.90;;;2.03;;
15876;SDS011;8037;51.666;7.834;2022-12-07T13:23:36;16.87;;;2.43;;
15876;SDS011;8037;51.666;7.834;2022-12-07T13:29:17;4.33;;;1.67;;
15876;SDS011;8037;51.666;7.834;2022-12-07T13:31:50;2.57;;;1.70;;
15876;SDS011;8037;51.666;7.834;2022-12-07T13:39:46;4.30;;;1.70;;
15876;SDS011;8037;51.666;7.834;2022-12-07T13:42:27;6.60;;;1.90;;
15876;SDS011;8037;51.666;7.834;2022-12-07T13:44:54;7.40;;;1.60;;
15876;SDS011;8037;51.666;7.834;2022-12-07T13:47:24;3.33;;;1.50;;
15876;SDS011;8037;51.666;7.834;2022-12-07T13:49:52;3.13;;;1.53;;
15876;SDS011;8037;51.666;7.834;2022-12-07T13:54:55;6.43;;;1.73;;
15876;SDS011;8037;51.666;7.834;2022-12-07T13:57:26;1.20;;;1.10;;
15876;SDS011;8037;51.666;7.834;2022-12-07T13:59:55;1.73;;;1.47;;
15876;SDS011;8037;51.666;7.834;2022-12-07T14:02:31;1.87;;;1.77;;
15876;SDS011;8037;51.666;7.834;2022-12-07T14:05:33;2.10;;;1.40;;
15876;SDS011;8037;51.666;7.834;2022-12-07T14:07:59;6.00;;;1.40;;
15876;SDS011;8037;51.666;7.834;2022-12-07T14:10:26;2.30;;;2.10;;
15876;SDS011;8037;51.666;7.834;2022-12-07T14:12:54;2.60;;;1.40;;
15876;SDS011;8037;51.666;7.834;2022-12-07T14:15:22;7.67;;;2.00;;
15876;SDS011;8037;51.666;7.834;2022-12-07T14:17:52;2.13;;;1.60;;
15876;SDS011;8037;51.666;7.834;2022-12-07T14:22:58;1.70;;;1.60;;
15876;SDS011;8037;51.666;7.834;2022-12-07T14:25:24;4.70;;;1.70;;
15876;SDS011;8037;51.666;7.834;2022-12-07T14:30:23;9.33;;;3.17;;
15876;SDS011;8037;51.666;7.834;2022-12-07T14:32:55;6.67;;;3.30;;
15876;SDS011;8037;51.666;7.834;2022-12-07T14:35:23;2.00;;;1.90;;
15876;SDS011;8037;51.666;7.834;2022-12-07T14:37:49;4.73;;;1.27;;
15876;SDS011;8037;51.666;7.834;2022-12-07T14:40:20;3.47;;;2.00;;
15876;SDS011;8037;51.666;7.834;2022-12-07T14:42:49;5.90;;;1.10;;
15876;SDS011;8037;51.666;7.834;2022-12-07T14:45:18;4.33;;;1.33;;
15876;SDS011;8037;51.666;7.834;2022-12-07T14:47:46;2.67;;;2.27;;
15876;SDS011;8037;51.666;7.834;2022-12-07T14:50:13;2.33;;;2.13;;
15876;SDS011;8037;51.666;7.834;2022-12-07T14:52:40;2.70;;;2.37;;
15876;SDS011;8037;51.666;7.834;2022-12-07T14:55:12;4.00;;;1.60;;
15876;SDS011;8037;51.666;7.834;2022-12-07T14:57:39;3.17;;;1.90;;
15876;SDS011;8037;51.666;7.834;2022-12-07T15:00:05;3.17;;;1.33;;
15876;SDS011;8037;51.666;7.834;2022-12-07T15:02:31;17.70;;;2.20;;
15876;SDS011;8037;51.666;7.834;2022-12-07T15:04:57;5.67;;;1.40;;
15876;SDS011;8037;51.666;7.834;2022-12-07T15:07:23;5.90;;;1.70;;
15876;SDS011;8037;51.666;7.834;2022-12-07T15:09:48;3.97;;;1.50;;
15876;SDS011;8037;51.666;7.834;2022-12-07T15:12:14;5.40;;;2.00;;
15876;SDS011;8037;51.666;7.834;2022-12-07T15:14:40;2.53;;;1.43;;
15876;SDS011;8037;51.666;7.834;2022-12-07T15:17:06;3.37;;;1.50;;
15876;SDS011;8037;51.666;7.834;2022-12-07T15:19:36;2.20;;;1.27;;
15876;SDS011;8037;51.666;7.834;2022-12-07T15:22:02;4.47;;;2.10;;
15876;SDS011;8037;51.666;7.834;2022-12-07T15:24:28;5.40;;;1.70;;
15876;SDS011;8037;51.666;7.834;2022-12-07T15:26:54;2.80;;;1.97;;
15876;SDS011;8037;51.666;7.834;2022-12-07T15:29:20;1.50;;;1.40;;
15876;SDS011;8037;51.666;7.834;2022-12-07T15:31:47;4.30;;;1.30;;
15876;SDS011;8037;51.666;7.834;2022-12-07T15:34:14;2.47;;;1.53;;
15876;SDS011;8037;51.666;7.834;2022-12-07T15:36:40;1.10;;;1.00;;
15876;SDS011;8037;51.666;7.834;2022-12-07T15:39:06;1.93;;;1.57;;
15876;SDS011;8037;51.666;7.834;2022-12-07T15:41:31;5.20;;;2.03;;
15876;SDS011;8037;51.666;7.834;2022-12-07T15:43:57;1.20;;;1.20;;
15876;SDS011;8037;51.666;7.834;2022-12-07T15:46:42;4.77;;;2.10;;
15876;SDS011;8037;51.666;7.834;2022-12-07T15:49:10;4.50;;;2.00;;
15876;SDS011;8037;51.666;7.834;2022-12-07T15:51:41;15.03;;;3.50;;
15876;SDS011;8037;51.666;7.834;2022-12-07T15:54:07;3.10;;;2.90;;
15876;SDS011;8037;51.666;7.834;2022-12-07T15:56:36;8.53;;;5.10;;
15876;SDS011;8037;51.666;7.834;2022-12-07T15:59:02;19.70;;;3.50;;
15876;SDS011;8037;51.666;7.834;2022-12-07T16:01:28;6.10;;;2.43;;
15876;SDS011;8037;51.666;7.834;2022-12-07T16:03:54;3.40;;;2.00;;
15876;SDS011;8037;51.666;7.834;2022-12-07T16:06:22;3.03;;;1.60;;
15876;SDS011;8037;51.666;7.834;2022-12-07T16:08:47;4.53;;;3.10;;
15876;SDS011;8037;51.666;7.834;2022-12-07T16:11:13;3.67;;;3.13;;
15876;SDS011;8037;51.666;7.834;2022-12-07T16:13:39;2.43;;;2.27;;
15876;SDS011;8037;51.666;7.834;2022-12-07T16:16:09;4.37;;;3.37;;
15876;SDS011;8037;51.666;7.834;2022-12-07T16:18:37;12.73;;;4.03;;
15876;SDS011;8037;51.666;7.834;2022-12-07T16:21:03;3.83;;;3.00;;
15876;SDS011;8037;51.666;7.834;2022-12-07T16:23:29;7.43;;;3.07;;
15876;SDS011;8037;51.666;7.834;2022-12-07T16:25:55;9.10;;;3.47;;
15876;SDS011;8037;51.666;7.834;2022-12-07T16:28:32;2.60;;;2.37;;
15876;SDS011;8037;51.666;7.834;2022-12-07T16:31:05;3.37;;;2.80;;
15876;SDS011;8037;51.666;7.834;2022-12-07T16:33:36;8.50;;;3.83;;
15876;SDS011;8037;51.666;7.834;2022-12-07T16:36:03;4.70;;;3.30;;
15876;SDS011;8037;51.666;7.834;2022-12-07T16:38:34;6.20;;;4.00;;
15876;SDS011;8037;51.666;7.834;2022-12-07T16:41:00;7.90;;;4.60;;
15876;SDS011;8037;51.666;7.834;2022-12-07T16:43:26;11.47;;;4.10;;
15876;SDS011;8037;51.666;7.834;2022-12-07T16:45:52;5.70;;;3.50;;
15876;SDS011;8037;51.666;7.834;2022-12-07T16:48:21;4.03;;;2.97;;
15876;SDS011;8037;51.666;7.834;2022-12-07T16:50:47;13.53;;;3.10;;
15876;SDS011;8037;51.666;7.834;2022-12-07T16:53:23;4.63;;;3.70;;
15876;SDS011;8037;51.666;7.834;2022-12-07T16:55:50;7.50;;;3.60;;
15876;SDS011;8037;51.666;7.834;2022-12-07T16:58:16;5.30;;;2.97;;
15876;SDS011;8037;51.666;7.834;2022-12-07T17:00:42;9.90;;;3.97;;
15876;SDS011;8037;51.666;7.834;2022-12-07T17:03:09;5.17;;;3.60;;
15876;SDS011;8037;51.666;7.834;2022-12-07T17:05:39;4.73;;;3.57;;
15876;SDS011;8037;51.666;7.834;2022-12-07T17:08:06;8.70;;;3.17;;
15876;SDS011;8037;51.666;7.834;2022-12-07T17:10:33;7.10;;;3.60;;